Time;durP1;ratioP1;P1;durP2;ratioP2;P2;SDS_P1;SDS_P2;PMS_P1;PMS_P2;Temp;Humidity;BMP_temperature;BMP_pressure;BME280_temperature;BME280_humidity;BME280_pressure;Samples;Min_cycle;Max_cycle;Signal;HPM_P1;HPM_P2
2023/07/27 00:00:02;;;;;;;8.98;4.45;;;16.40;99.90;;;;;;5032894;28;20043;-93
2023/07/27 00:02:27;;;;;;;7.95;4.97;;;16.50;99.90;;;;;;5037477;28;20025;-93
2023/07/27 00:04:53;;;;;;;6.53;4.38;;;16.40;99.90;;;;;;5037020;28;20105;-93
2023/07/27 00:07:18;;;;;;;8.68;4.93;;;16.40;99.90;;;;;;5035518;28;20025;-94
2023/07/27 00:09:44;;;;;;;9.10;5.47;;;16.40;99.90;;;;;;5019119;28;20564;-93
2023/07/27 00:12:10;;;;;;;11.23;5.53;;;16.40;99.90;;;;;;5032546;28;20024;-93
2023/07/27 00:14:35;;;;;;;8.85;5.05;;;16.40;99.90;;;;;;5036763;28;20025;-94
2023/07/27 00:17:01;;;;;;;7.85;4.88;;;16.30;99.90;;;;;;5037057;28;20511;-94
2023/07/27 00:19:26;;;;;;;6.53;4.63;;;16.30;99.90;;;;;;5035349;28;20025;-93
2023/07/27 00:21:52;;;;;;;8.20;5.00;;;16.40;99.90;;;;;;5030197;28;20060;-93
2023/07/27 00:24:17;;;;;;;10.95;5.00;;;16.40;99.90;;;;;;5026320;28;20025;-92
2023/07/27 00:26:43;;;;;;;9.20;4.93;;;16.40;99.90;;;;;;5035754;28;20021;-93
2023/07/27 00:29:10;;;;;;;8.00;4.65;;;16.50;99.90;;;;;;5030688;28;20408;-92
2023/07/27 00:31:35;;;;;;;7.15;5.03;;;16.50;99.90;;;;;;5037047;28;20021;-93
2023/07/27 00:34:01;;;;;;;7.18;4.10;;;16.60;99.90;;;;;;5036594;28;20542;-91
2023/07/27 00:36:27;;;;;;;9.25;4.82;;;16.50;99.90;;;;;;5033123;28;20547;-93
2023/07/27 00:38:52;;;;;;;11.10;5.45;;;16.50;99.90;;;;;;5030291;28;20486;-92
2023/07/27 00:41:18;;;;;;;9.45;5.13;;;16.50;99.90;;;;;;5014056;28;20029;-92
2023/07/27 00:43:43;;;;;;;9.43;5.18;;;16.50;99.90;;;;;;5027913;28;20057;-93
2023/07/27 00:46:10;;;;;;;9.10;5.30;;;16.50;99.90;;;;;;5036744;28;20123;-94
2023/07/27 00:48:35;;;;;;;10.77;5.32;;;16.40;99.90;;;;;;5028323;28;20500;-94
2023/07/27 00:51:01;;;;;;;8.57;5.60;;;16.30;99.90;;;;;;5052964;28;20073;-95
2023/07/27 00:53:27;;;;;;;10.27;6.03;;;16.30;99.90;;;;;;5034052;28;20017;-95
2023/07/27 00:55:53;;;;;;;8.77;4.97;;;16.20;99.90;;;;;;5035474;28;20386;-96
2023/07/27 00:58:19;;;;;;;7.68;5.03;;;16.20;99.90;;;;;;5036325;28;20379;-95
2023/07/27 01:00:45;;;;;;;8.20;5.80;;;16.10;99.90;;;;;;5035727;28;20116;-95
2023/07/27 01:03:10;;;;;;;9.13;5.72;;;16.00;99.90;;;;;;5036728;28;20524;-94
2023/07/27 01:05:37;;;;;;;9.88;5.40;;;16.00;99.90;;;;;;5032549;28;20029;-93
2023/07/27 01:08:03;;;;;;;8.43;6.05;;;15.90;99.90;;;;;;5027732;28;22252;-93
2023/07/27 01:10:49;;;;;;;9.77;6.05;;;15.90;99.90;;;;;;5035954;28;20056;-93
2023/07/27 01:13:23;;;;;;;9.90;5.70;;;15.80;99.90;;;;;;5026047;28;20136;-94
2023/07/27 01:15:56;;;;;;;10.02;5.93;;;15.80;99.90;;;;;;5043698;28;20029;-96
2023/07/27 01:18:52;;;;;;;10.82;5.85;;;15.70;99.90;;;;;;5050125;28;20013;-96
2023/07/27 01:21:29;;;;;;;9.25;6.28;;;15.70;99.90;;;;;;5026273;28;20033;-94
2023/07/27 01:24:34;;;;;;;12.63;5.80;;;15.60;99.90;;;;;;5033006;28;20076;-95
2023/07/27 01:27:43;;;;;;;10.15;5.75;;;15.60;99.90;;;;;;5035302;28;20050;-95
2023/07/27 01:30:23;;;;;;;10.27;6.05;;;15.60;99.90;;;;;;5036466;28;20473;-96
2023/07/27 01:32:56;;;;;;;10.55;6.47;;;15.50;99.90;;;;;;5034654;28;20065;-95
2023/07/27 01:35:31;;;;;;;11.18;6.65;;;15.60;99.90;;;;;;5038488;28;20029;-95
2023/07/27 01:38:01;;;;;;;8.65;6.35;;;15.50;99.90;;;;;;5041483;28;20017;-95
2023/07/27 01:40:28;;;;;;;11.25;6.50;;;15.50;99.90;;;;;;5041569;28;20032;-95
2023/07/27 01:42:54;;;;;;;12.80;6.45;;;15.50;99.90;;;;;;5053814;28;20021;-94
2023/07/27 01:45:22;;;;;;;9.80;6.28;;;15.40;99.90;;;;;;5037394;28;20054;-94
2023/07/27 01:47:49;;;;;;;8.40;6.20;;;15.40;99.90;;;;;;5036836;28;20021;-95
2023/07/27 01:50:16;;;;;;;9.10;6.03;;;15.40;99.90;;;;;;5035314;28;20036;-94
2023/07/27 01:52:44;;;;;;;11.70;7.00;;;15.40;99.90;;;;;;5036492;28;20058;-95
2023/07/27 01:55:11;;;;;;;8.80;6.63;;;15.40;99.90;;;;;;5031424;28;20025;-95
2023/07/27 01:57:37;;;;;;;8.88;6.43;;;15.40;99.90;;;;;;5024033;28;20036;-94
2023/07/27 02:00:03;;;;;;;10.35;6.38;;;15.40;99.90;;;;;;5052170;28;20028;-94
2023/07/27 02:02:30;;;;;;;12.32;6.90;;;15.40;99.90;;;;;;5035848;28;20055;-95
2023/07/27 02:04:59;;;;;;;9.90;6.72;;;15.40;99.90;;;;;;5040791;28;20061;-95
2023/07/27 02:07:25;;;;;;;11.68;7.25;;;15.40;99.90;;;;;;5055353;28;20044;-96
2023/07/27 02:09:50;;;;;;;10.60;7.18;;;15.40;99.90;;;;;;5036507;28;20025;-95
2023/07/27 02:12:21;;;;;;;10.82;6.90;;;15.40;99.90;;;;;;5035818;28;20048;-95
2023/07/27 02:14:55;;;;;;;11.38;7.85;;;15.30;99.90;;;;;;5028024;28;20021;-96
2023/07/27 02:17:29;;;;;;;12.18;7.65;;;15.30;99.90;;;;;;5030583;28;20037;-95
2023/07/27 02:19:57;;;;;;;13.52;8.40;;;15.30;99.90;;;;;;5029437;28;20029;-95
2023/07/27 02:22:24;;;;;;;13.55;8.00;;;15.30;99.90;;;;;;5036632;28;20110;-95
2023/07/27 02:24:50;;;;;;;13.07;7.75;;;15.30;99.90;;;;;;5036331;28;20416;-96
2023/07/27 02:27:15;;;;;;;15.18;9.15;;;15.20;99.90;;;;;;5035725;28;20115;-95
2023/07/27 02:29:41;;;;;;;10.82;8.60;;;15.20;99.90;;;;;;5035205;28;20021;-95
2023/07/27 02:32:07;;;;;;;13.07;9.10;;;15.20;99.90;;;;;;5032245;28;20087;-94
2023/07/27 02:34:32;;;;;;;12.73;9.35;;;15.20;99.90;;;;;;5031954;28;20025;-95
2023/07/27 02:36:58;;;;;;;15.88;9.77;;;15.20;99.90;;;;;;5035881;28;20037;-95
2023/07/27 02:39:23;;;;;;;19.27;10.13;;;15.10;99.90;;;;;;5032763;28;20389;-95
2023/07/27 02:41:49;;;;;;;13.90;10.45;;;15.20;99.90;;;;;;5075517;28;20029;-95
2023/07/27 02:44:15;;;;;;;16.13;10.68;;;15.10;99.90;;;;;;5014589;28;20025;-95
2023/07/27 02:46:40;;;;;;;20.58;10.77;;;15.10;99.90;;;;;;5038114;28;20036;-95
2023/07/27 02:49:06;;;;;;;15.15;11.05;;;15.10;99.90;;;;;;5036190;28;20025;-95
2023/07/27 02:51:31;;;;;;;15.88;10.57;;;15.10;99.90;;;;;;5040253;28;20033;-95
2023/07/27 02:53:57;;;;;;;16.23;11.50;;;15.00;99.90;;;;;;5038229;28;20043;-95
2023/07/27 02:56:24;;;;;;;17.40;11.27;;;15.00;99.90;;;;;;5038980;28;20041;-94
2023/07/27 02:58:49;;;;;;;17.05;11.23;;;15.00;99.90;;;;;;5035875;28;20073;-93
2023/07/27 03:01:15;;;;;;;19.05;11.18;;;15.00;99.90;;;;;;5023316;28;20025;-94
2023/07/27 03:03:42;;;;;;;16.13;11.02;;;14.90;99.90;;;;;;5041998;28;20052;-95
2023/07/27 03:06:09;;;;;;;18.00;10.63;;;14.90;99.90;;;;;;5052023;28;20029;-96
2023/07/27 03:08:34;;;;;;;17.15;11.20;;;14.90;99.90;;;;;;5045961;28;20017;-95
2023/07/27 03:11:02;;;;;;;17.55;11.65;;;14.90;99.90;;;;;;5040405;28;20025;-95
2023/07/27 03:13:27;;;;;;;18.77;11.88;;;15.00;99.90;;;;;;5046961;28;20028;-96
2023/07/27 03:15:53;;;;;;;17.98;12.35;;;14.90;99.90;;;;;;5032654;28;20493;-95
2023/07/27 03:18:20;;;;;;;19.02;12.88;;;14.90;99.90;;;;;;5048816;28;20037;-95
2023/07/27 03:20:48;;;;;;;18.10;11.55;;;14.90;99.90;;;;;;5049608;28;20044;-95
2023/07/27 03:23:44;;;;;;;18.70;12.23;;;14.90;99.90;;;;;;5075893;28;20057;-96
2023/07/27 03:26:13;;;;;;;17.20;12.70;;;14.90;99.90;;;;;;5064321;28;20049;-96
2023/07/27 03:28:43;;;;;;;20.20;14.10;;;14.90;99.90;;;;;;5054133;28;20369;-96
2023/07/27 03:31:34;;;;;;;20.52;13.48;;;14.80;99.90;;;;;;5054060;28;20028;-96
2023/07/27 03:34:00;;;;;;;23.80;13.48;;;14.80;99.90;;;;;;5076590;28;20033;-96
2023/07/27 03:36:25;;;;;;;18.98;13.00;;;14.80;99.90;;;;;;5030048;28;20064;-96
2023/07/27 03:38:51;;;;;;;20.83;13.13;;;14.80;99.90;;;;;;5031391;28;20053;-96
2023/07/27 03:41:41;;;;;;;19.40;11.77;;;14.80;99.90;;;;;;5035707;28;20445;-96
2023/07/27 03:48:04;;;;;;;18.17;11.03;;;14.80;99.90;;;;;;5060146;28;20016;-96
2023/07/27 03:54:37;;;;;;;16.33;9.93;;;14.70;99.90;;;;;;5059063;28;20044;-96
2023/07/27 04:00:57;;;;;;;15.23;9.63;;;14.70;99.90;;;;;;5059647;28;20068;-96
2023/07/27 04:04:11;;;;;;;13.07;8.73;;;14.60;99.90;;;;;;5056080;28;20030;-96
2023/07/27 04:06:41;;;;;;;17.45;9.55;;;14.60;99.90;;;;;;5048776;28;20021;-95
2023/07/27 04:09:43;;;;;;;14.68;9.25;;;14.60;99.90;;;;;;5044977;28;20041;-96
2023/07/27 04:15:42;;;;;;;12.05;8.02;;;14.50;99.90;;;;;;5019405;28;20053;-92
2023/07/27 04:18:40;;;;;;;15.30;8.15;;;14.60;99.90;;;;;;5017484;28;20038;-96
2023/07/27 04:24:45;;;;;;;12.32;7.75;;;14.60;99.90;;;;;;5015159;28;20073;-96
2023/07/27 04:27:11;;;;;;;14.30;8.82;;;14.60;99.90;;;;;;4998410;28;20058;-96
2023/07/27 04:30:01;;;;;;;13.18;8.38;;;14.60;99.90;;;;;;5015327;28;20018;-96
2023/07/27 04:32:49;;;;;;;12.77;8.40;;;14.60;99.90;;;;;;5016629;28;20129;-96
2023/07/27 04:35:15;;;;;;;10.10;7.68;;;14.70;99.90;;;;;;5049402;23;20052;-72
2023/07/27 04:37:40;;;;;;;12.05;8.57;;;14.60;99.90;;;;;;5042127;28;20017;-72
2023/07/27 04:40:06;;;;;;;13.82;8.45;;;14.60;99.90;;;;;;5043969;28;20072;-72
2023/07/27 04:42:32;;;;;;;12.30;8.60;;;14.70;99.90;;;;;;5052052;28;20025;-72
2023/07/27 04:44:57;;;;;;;14.25;8.45;;;14.70;99.90;;;;;;5046552;28;20394;-72
2023/07/27 04:47:23;;;;;;;16.63;8.73;;;14.70;99.90;;;;;;5067576;28;20492;-72
2023/07/27 04:49:48;;;;;;;10.75;7.78;;;14.70;99.90;;;;;;5051621;28;20044;-72
2023/07/27 04:52:14;;;;;;;13.45;8.90;;;14.70;99.90;;;;;;5052337;28;20061;-72
2023/07/27 04:54:39;;;;;;;11.45;8.07;;;14.70;99.90;;;;;;5043813;28;20127;-72
2023/07/27 04:57:05;;;;;;;10.65;7.60;;;14.70;99.90;;;;;;5043326;28;20108;-72
2023/07/27 04:59:31;;;;;;;11.82;7.45;;;14.70;99.90;;;;;;5045842;28;20032;-72
2023/07/27 05:01:56;;;;;;;11.20;7.78;;;14.80;99.90;;;;;;5045905;28;20033;-72
2023/07/27 05:04:22;;;;;;;10.32;6.60;;;14.80;99.90;;;;;;5045461;28;20056;-72
2023/07/27 05:06:47;;;;;;;8.77;6.40;;;14.80;99.90;;;;;;5066503;28;20032;-72
2023/07/27 05:09:13;;;;;;;10.07;6.22;;;14.80;99.90;;;;;;5052044;28;20036;-72
2023/07/27 05:11:39;;;;;;;9.68;6.15;;;14.90;99.90;;;;;;5051484;28;20147;-72
2023/07/27 05:14:04;;;;;;;8.57;5.18;;;14.90;99.90;;;;;;5036214;28;20074;-72
2023/07/27 05:16:30;;;;;;;6.82;5.05;;;14.90;99.90;;;;;;5046425;28;20041;-71
2023/07/27 05:18:57;;;;;;;6.75;5.28;;;14.90;99.90;;;;;;5046299;28;20594;-72
2023/07/27 05:21:23;;;;;;;6.95;5.18;;;15.00;99.90;;;;;;5041522;28;20029;-70
2023/07/27 05:23:49;;;;;;;7.75;5.15;;;15.00;99.90;;;;;;5045294;28;20572;-71
2023/07/27 05:26:14;;;;;;;9.55;5.03;;;15.00;99.90;;;;;;5049504;28;20032;-71
2023/07/27 05:28:40;;;;;;;7.70;6.10;;;15.10;99.90;;;;;;5044602;28;20065;-71
2023/07/27 05:31:07;;;;;;;9.13;5.15;;;15.10;99.90;;;;;;5039014;28;20508;-72
2023/07/27 05:33:32;;;;;;;5.00;4.25;;;15.10;99.90;;;;;;5046052;28;20381;-72
2023/07/27 05:35:58;;;;;;;12.07;7.10;;;15.10;99.90;;;;;;5062988;28;20040;-72
2023/07/27 05:38:23;;;;;;;7.63;4.53;;;15.20;99.90;;;;;;5064196;28;20178;-70
2023/07/27 05:40:49;;;;;;;6.18;4.82;;;15.20;99.90;;;;;;5063050;28;20561;-71
2023/07/27 05:43:15;;;;;;;5.72;4.35;;;15.10;99.90;;;;;;5070407;28;20033;-71
2023/07/27 05:45:40;;;;;;;5.18;4.00;;;15.10;99.90;;;;;;5070262;28;20077;-70
2023/07/27 05:48:06;;;;;;;6.47;3.42;;;15.20;99.90;;;;;;5069063;28;20036;-70
2023/07/27 05:50:32;;;;;;;7.63;4.85;;;15.20;99.90;;;;;;5063044;28;20387;-70
2023/07/27 05:52:58;;;;;;;4.13;3.13;;;15.30;99.90;;;;;;5059195;28;20073;-70
2023/07/27 05:55:23;;;;;;;4.70;3.10;;;15.30;99.90;;;;;;5059273;28;20041;-70
2023/07/27 05:57:49;;;;;;;5.70;3.03;;;15.30;99.90;;;;;;5068435;28;20056;-72
2023/07/27 06:00:15;;;;;;;5.43;3.95;;;15.30;99.90;;;;;;5071302;28;20017;-72
2023/07/27 06:02:40;;;;;;;3.30;2.65;;;15.40;99.90;;;;;;5071173;28;20031;-71
2023/07/27 06:05:06;;;;;;;4.80;3.88;;;15.40;99.90;;;;;;5065175;28;20028;-72
2023/07/27 06:07:32;;;;;;;5.53;3.22;;;15.40;99.90;;;;;;5068418;28;20052;-72
2023/07/27 06:09:58;;;;;;;4.80;3.20;;;15.50;99.90;;;;;;5056557;28;20055;-70
2023/07/27 06:12:23;;;;;;;3.30;2.45;;;15.50;99.90;;;;;;5069132;28;20480;-70
2023/07/27 06:14:49;;;;;;;4.22;2.50;;;15.50;99.90;;;;;;5062903;28;20029;-70
2023/07/27 06:17:15;;;;;;;3.88;2.72;;;15.50;99.90;;;;;;5061761;28;20398;-70
2023/07/27 06:19:40;;;;;;;3.97;2.17;;;15.60;99.90;;;;;;5069679;28;20025;-71
2023/07/27 06:22:06;;;;;;;3.95;2.50;;;15.60;99.90;;;;;;5066943;28;20036;-71
2023/07/27 06:24:32;;;;;;;4.70;2.17;;;15.60;99.90;;;;;;5064072;28;20455;-71
2023/07/27 06:26:57;;;;;;;6.07;2.45;;;15.70;99.90;;;;;;5058693;28;20028;-71
2023/07/27 06:29:23;;;;;;;3.17;2.05;;;15.80;99.90;;;;;;5067694;28;20069;-71
2023/07/27 06:31:48;;;;;;;4.32;1.75;;;15.80;99.90;;;;;;5069159;28;20037;-71
2023/07/27 06:34:14;;;;;;;2.90;2.30;;;15.80;99.90;;;;;;5070022;28;20078;-71
2023/07/27 06:36:39;;;;;;;2.78;1.98;;;15.80;99.90;;;;;;5070152;28;20040;-72
2023/07/27 06:39:05;;;;;;;3.38;2.25;;;15.90;99.90;;;;;;5069698;28;20032;-72
2023/07/27 06:41:31;;;;;;;3.00;2.03;;;15.90;99.90;;;;;;5068668;28;20032;-71
2023/07/27 06:43:56;;;;;;;2.50;1.98;;;15.90;99.90;;;;;;5063024;28;20025;-71
2023/07/27 06:46:23;;;;;;;3.00;1.75;;;16.00;99.90;;;;;;5060463;28;20033;-72
2023/07/27 06:48:48;;;;;;;3.58;2.10;;;16.00;99.90;;;;;;5051186;28;20040;-72
2023/07/27 06:51:14;;;;;;;2.60;1.95;;;16.00;99.90;;;;;;5064263;28;20158;-72
2023/07/27 06:53:39;;;;;;;2.85;1.90;;;16.00;99.90;;;;;;5070332;28;20431;-72
2023/07/27 06:56:05;;;;;;;3.38;2.17;;;16.10;99.90;;;;;;5067470;28;20078;-72
2023/07/27 06:58:31;;;;;;;3.17;1.50;;;16.10;99.90;;;;;;5070272;28;20029;-72
2023/07/27 07:00:57;;;;;;;1.88;1.50;;;16.10;99.90;;;;;;5063448;28;20089;-72
2023/07/27 07:03:23;;;;;;;2.50;1.77;;;16.20;99.90;;;;;;5055886;28;20025;-72
2023/07/27 07:05:48;;;;;;;3.15;2.40;;;16.20;99.90;;;;;;5069764;28;20557;-72
2023/07/27 07:08:14;;;;;;;3.40;2.10;;;16.20;99.90;;;;;;5069695;28;20083;-72
2023/07/27 07:10:39;;;;;;;3.40;2.05;;;16.30;99.90;;;;;;5063997;28;20036;-72
2023/07/27 07:13:05;;;;;;;2.40;1.85;;;16.40;99.90;;;;;;5064206;28;20105;-71
2023/07/27 07:15:30;;;;;;;5.18;1.92;;;16.50;99.90;;;;;;5063858;28;20033;-72
2023/07/27 07:17:56;;;;;;;4.10;2.13;;;16.60;99.90;;;;;;5067728;28;20070;-72
2023/07/27 07:20:22;;;;;;;2.97;2.35;;;16.60;99.90;;;;;;5067373;28;20107;-72
2023/07/27 07:22:47;;;;;;;2.33;1.90;;;16.80;99.90;;;;;;5070188;28;20384;-71
2023/07/27 07:25:13;;;;;;;3.17;2.22;;;16.90;99.90;;;;;;5066705;28;20047;-72
2023/07/27 07:27:39;;;;;;;2.75;2.35;;;17.00;99.90;;;;;;5068408;28;20059;-72
2023/07/27 07:30:05;;;;;;;3.25;2.45;;;17.10;99.90;;;;;;5069766;28;20370;-72
2023/07/27 07:32:31;;;;;;;2.90;2.13;;;17.20;99.90;;;;;;5067133;28;20024;-72
2023/07/27 07:34:57;;;;;;;2.33;2.10;;;17.20;99.90;;;;;;5067991;28;20037;-72
2023/07/27 07:37:25;;;;;;;3.10;1.77;;;17.20;99.90;;;;;;5073819;28;20032;-72
2023/07/27 07:39:51;;;;;;;3.38;2.30;;;17.20;99.90;;;;;;5073574;28;20158;-72
2023/07/27 07:42:17;;;;;;;2.08;1.55;;;17.20;99.90;;;;;;5072129;28;20107;-71
2023/07/27 07:44:42;;;;;;;1.83;1.30;;;17.30;99.90;;;;;;5070664;28;20101;-72
2023/07/27 07:47:08;;;;;;;2.10;1.30;;;17.30;99.90;;;;;;5070626;28;20024;-73
2023/07/27 07:49:34;;;;;;;1.52;0.98;;;17.30;99.90;;;;;;5072850;28;20040;-71
2023/07/27 07:52:00;;;;;;;2.03;1.15;;;17.40;99.90;;;;;;5070794;28;20385;-72
2023/07/27 07:54:32;;;;;;;3.45;1.02;;;17.40;99.90;;;;;;5073067;28;20032;-72
2023/07/27 07:56:58;;;;;;;2.67;1.13;;;17.50;99.90;;;;;;5072468;28;20043;-72
2023/07/27 07:59:24;;;;;;;2.13;1.10;;;17.70;99.90;;;;;;5073556;28;20025;-72
2023/07/27 08:01:50;;;;;;;2.05;1.27;;;17.70;99.90;;;;;;5071661;28;20399;-72
2023/07/27 08:04:16;;;;;;;2.15;1.20;;;17.80;99.90;;;;;;5072699;28;20032;-72
2023/07/27 08:06:42;;;;;;;1.48;0.88;;;17.80;99.90;;;;;;5073079;28;20092;-72
2023/07/27 08:09:08;;;;;;;1.92;1.10;;;17.80;99.90;;;;;;5072843;28;20084;-72
2023/07/27 08:11:35;;;;;;;2.58;0.90;;;17.80;99.90;;;;;;5071906;28;20034;-72
2023/07/27 08:14:02;;;;;;;2.33;0.93;;;17.90;99.90;;;;;;5070636;28;20024;-72
2023/07/27 08:16:29;;;;;;;1.95;0.93;;;17.90;99.90;;;;;;5070443;28;20036;-72
2023/07/27 08:18:54;;;;;;;1.92;0.85;;;18.00;99.90;;;;;;5069470;28;20029;-72
2023/07/27 08:21:21;;;;;;;1.88;1.10;;;18.10;99.90;;;;;;5069547;28;20491;-71
2023/07/27 08:23:47;;;;;;;1.73;1.20;;;18.10;99.90;;;;;;5072387;28;20067;-72
2023/07/27 08:26:12;;;;;;;2.20;1.27;;;18.20;99.90;;;;;;5069273;28;20037;-72
2023/07/27 08:28:38;;;;;;;2.33;1.50;;;18.20;99.90;;;;;;5072880;28;20017;-72
2023/07/27 08:31:04;;;;;;;1.83;1.10;;;18.20;99.90;;;;;;5069499;28;20497;-72
2023/07/27 08:33:30;;;;;;;1.88;1.20;;;18.20;99.90;;;;;;5068219;28;20874;-72
2023/07/27 08:35:57;;;;;;;1.80;1.08;;;18.20;99.90;;;;;;5065671;28;20488;-72
2023/07/27 08:38:23;;;;;;;1.67;1.40;;;18.30;99.90;;;;;;5072146;28;20032;-73
2023/07/27 08:40:59;;;;;;;1.92;1.17;;;18.30;99.90;;;;;;5068163;28;20053;-72
2023/07/27 08:43:25;;;;;;;2.15;1.20;;;18.30;99.90;;;;;;5058373;28;20021;-72
2023/07/27 08:45:52;;;;;;;1.52;0.93;;;18.40;99.90;;;;;;5070523;28;20025;-72
2023/07/27 08:48:17;;;;;;;2.10;1.13;;;18.30;99.90;;;;;;5061446;28;20033;-72
2023/07/27 08:50:45;;;;;;;1.85;0.80;;;18.30;99.90;;;;;;5069305;28;20024;-72
2023/07/27 08:53:12;;;;;;;2.38;0.80;;;18.30;99.90;;;;;;5071688;28;20074;-72
2023/07/27 08:55:41;;;;;;;2.15;0.98;;;18.30;99.90;;;;;;5068709;28;20470;-72
2023/07/27 08:58:08;;;;;;;1.90;0.95;;;18.30;99.90;;;;;;5072156;28;20078;-72
2023/07/27 09:00:34;;;;;;;2.30;1.10;;;18.30;99.90;;;;;;5069892;28;20468;-72
2023/07/27 09:03:00;;;;;;;2.42;1.25;;;18.40;99.90;;;;;;5064403;28;20086;-72
2023/07/27 09:05:44;;;;;;;4.38;1.70;;;18.50;99.90;;;;;;5067890;28;20107;-72
2023/07/27 09:08:14;;;;;;;4.07;2.70;;;18.60;99.90;;;;;;5068720;28;20016;-72
2023/07/27 09:10:41;;;;;;;5.47;2.50;;;18.60;99.90;;;;;;5071664;28;20574;-72
2023/07/27 09:13:07;;;;;;;3.42;3.17;;;18.60;99.90;;;;;;5068903;28;20035;-72
2023/07/27 09:15:34;;;;;;;3.92;3.10;;;18.50;99.90;;;;;;5068330;28;20086;-72
2023/07/27 09:18:01;;;;;;;4.35;3.50;;;18.50;99.90;;;;;;5067039;28;20078;-72
2023/07/27 09:20:30;;;;;;;3.38;3.05;;;18.60;99.90;;;;;;5069532;28;20385;-72
2023/07/27 09:22:56;;;;;;;4.38;3.80;;;18.60;99.90;;;;;;5070354;28;20028;-72
2023/07/27 09:25:22;;;;;;;3.60;2.88;;;18.60;99.90;;;;;;5070316;28;20036;-72
2023/07/27 09:27:53;;;;;;;3.08;2.63;;;18.70;99.90;;;;;;5068782;28;20376;-71
2023/07/27 09:30:18;;;;;;;4.00;3.22;;;18.70;99.90;;;;;;5070843;28;20032;-72
2023/07/27 09:32:45;;;;;;;4.07;3.10;;;18.70;99.90;;;;;;5070753;28;20031;-72
2023/07/27 09:35:15;;;;;;;3.17;2.88;;;18.70;99.90;;;;;;5067656;28;22481;-72
2023/07/27 09:37:47;;;;;;;4.15;3.38;;;18.80;99.90;;;;;;5069857;28;20023;-72
2023/07/27 09:40:15;;;;;;;4.93;2.78;;;18.80;99.90;;;;;;5071464;28;20032;-71
2023/07/27 09:42:42;;;;;;;3.50;3.00;;;18.80;99.90;;;;;;5069673;28;20454;-72
2023/07/27 09:45:08;;;;;;;4.95;3.72;;;18.80;99.90;;;;;;5069864;28;20060;-72
2023/07/27 09:47:34;;;;;;;4.57;3.22;;;18.80;99.90;;;;;;5069439;28;20398;-72
2023/07/27 09:50:01;;;;;;;2.83;2.63;;;18.90;99.90;;;;;;5067543;28;20024;-72
2023/07/27 09:52:28;;;;;;;3.03;2.78;;;18.90;99.90;;;;;;5070781;28;20055;-72
2023/07/27 09:54:58;;;;;;;2.10;1.77;;;18.90;99.90;;;;;;5068584;28;20095;-72
2023/07/27 09:57:24;;;;;;;2.85;2.28;;;18.90;99.90;;;;;;5068833;28;20467;-72
2023/07/27 09:59:51;;;;;;;2.53;2.33;;;18.90;99.90;;;;;;5070496;28;20025;-72
2023/07/27 10:02:17;;;;;;;4.18;2.53;;;19.00;99.90;;;;;;5065164;28;20052;-72
2023/07/27 10:04:46;;;;;;;2.90;2.15;;;19.00;99.90;;;;;;5070200;28;20021;-72
2023/07/27 10:07:12;;;;;;;3.42;2.33;;;19.10;99.90;;;;;;5070708;28;20067;-72
2023/07/27 10:09:38;;;;;;;2.65;1.85;;;19.20;99.90;;;;;;5063421;28;20739;-72
2023/07/27 10:12:04;;;;;;;2.10;1.90;;;19.20;99.90;;;;;;5057398;28;20036;-72
2023/07/27 10:14:31;;;;;;;3.13;1.83;;;19.20;99.90;;;;;;5043742;28;20044;-71
2023/07/27 10:16:57;;;;;;;3.75;2.50;;;19.20;99.90;;;;;;5046441;28;20062;-71
2023/07/27 10:19:22;;;;;;;2.42;2.00;;;19.20;99.90;;;;;;5047362;28;20056;-72
2023/07/27 10:21:49;;;;;;;2.08;1.88;;;19.10;99.90;;;;;;5046803;23;20534;-72
2023/07/27 10:24:20;;;;;;;2.80;1.70;;;19.20;99.90;;;;;;5028099;28;20017;-71
2023/07/27 10:26:52;;;;;;;2.75;1.65;;;19.20;99.90;;;;;;5042452;22;20062;-72
2023/07/27 10:29:27;;;;;;;1.80;1.40;;;19.20;99.90;;;;;;5000977;28;20037;-71
2023/07/27 10:32:01;;;;;;;2.60;1.50;;;19.20;99.90;;;;;;4984758;28;20026;-72
2023/07/27 10:34:28;;;;;;;2.50;1.50;;;19.10;99.90;;;;;;5019556;28;20027;-71
2023/07/27 10:36:58;;;;;;;3.45;1.42;;;19.20;99.90;;;;;;4987180;28;20099;-72
2023/07/27 10:39:31;;;;;;;1.88;1.67;;;19.40;99.90;;;;;;4984198;28;20494;-71
2023/07/27 10:42:00;;;;;;;1.85;1.17;;;19.50;99.90;;;;;;4983589;28;20061;-71
2023/07/27 10:44:40;;;;;;;1.63;1.25;;;19.60;99.90;;;;;;4987724;28;20030;-71
2023/07/27 10:47:08;;;;;;;1.88;1.55;;;19.70;99.90;;;;;;4998473;28;20031;-71
2023/07/27 10:49:39;;;;;;;1.95;1.50;;;19.70;99.90;;;;;;5002496;28;20026;-71
2023/07/27 10:52:05;;;;;;;2.10;1.70;;;19.70;99.90;;;;;;5010494;28;20473;-71
2023/07/27 10:54:35;;;;;;;1.92;1.73;;;19.70;99.90;;;;;;4998914;28;20026;-71
2023/07/27 10:57:03;;;;;;;2.97;1.60;;;19.70;99.90;;;;;;4995469;28;20056;-72
2023/07/27 10:59:30;;;;;;;2.60;1.95;;;19.70;99.90;;;;;;4986032;28;20037;-71
2023/07/27 11:01:56;;;;;;;3.45;1.80;;;19.80;99.90;;;;;;4999792;28;20025;-71
2023/07/27 11:04:22;;;;;;;2.53;1.23;;;19.80;99.90;;;;;;4995668;28;20417;-71
2023/07/27 11:06:47;;;;;;;1.98;1.63;;;19.80;99.90;;;;;;4991163;28;20359;-71
2023/07/27 11:09:15;;;;;;;3.33;1.80;;;19.80;99.90;;;;;;4998115;28;20034;-71
2023/07/27 11:11:42;;;;;;;2.20;1.42;;;19.70;99.90;;;;;;5014722;28;20025;-72
2023/07/27 11:14:07;;;;;;;2.45;1.70;;;19.70;99.90;;;;;;5002280;28;20029;-72
2023/07/27 11:16:37;;;;;;;2.30;1.48;;;19.80;99.90;;;;;;5010156;28;20038;-72
2023/07/27 11:19:03;;;;;;;1.80;1.30;;;19.80;99.90;;;;;;5013981;28;20389;-71
2023/07/27 11:21:31;;;;;;;1.88;1.60;;;19.80;99.90;;;;;;5015037;28;20084;-72
2023/07/27 11:23:57;;;;;;;2.83;1.35;;;19.80;99.90;;;;;;4997498;28;20077;-71
2023/07/27 11:26:26;;;;;;;1.60;1.10;;;19.80;99.90;;;;;;5012284;28;20045;-71
2023/07/27 11:28:54;;;;;;;2.25;1.30;;;19.80;99.90;;;;;;5033038;28;20485;-72
2023/07/27 11:31:19;;;;;;;1.98;1.38;;;19.80;99.90;;;;;;5029950;28;20087;-71
2023/07/27 11:33:45;;;;;;;2.50;1.52;;;19.80;99.90;;;;;;5033777;28;20461;-72
2023/07/27 11:36:11;;;;;;;3.20;1.65;;;19.80;99.90;;;;;;5028857;28;20038;-72
2023/07/27 11:38:36;;;;;;;2.25;1.42;;;19.80;99.90;;;;;;5020417;28;20017;-71
2023/07/27 11:41:02;;;;;;;2.13;1.58;;;19.80;99.90;;;;;;5033329;28;20025;-72
2023/07/27 11:43:28;;;;;;;2.75;1.48;;;19.80;99.90;;;;;;5029699;28;20036;-72
2023/07/27 11:45:57;;;;;;;1.73;1.55;;;19.80;99.90;;;;;;5033006;28;20477;-72
2023/07/27 11:48:29;;;;;;;2.47;1.13;;;19.90;99.90;;;;;;5033896;28;20137;-72
2023/07/27 11:50:57;;;;;;;4.93;1.65;;;20.00;99.90;;;;;;5033409;28;20029;-72
2023/07/27 11:53:25;;;;;;;1.75;1.33;;;20.00;99.90;;;;;;5027398;28;20030;-71
2023/07/27 11:55:51;;;;;;;1.67;1.10;;;20.00;99.90;;;;;;5026932;28;20073;-71
2023/07/27 11:58:17;;;;;;;4.57;1.08;;;20.00;99.90;;;;;;5019876;28;20112;-71
2023/07/27 12:00:51;;;;;;;1.95;0.90;;;20.00;99.90;;;;;;5030292;28;20113;-72
2023/07/27 12:03:19;;;;;;;2.03;1.20;;;20.00;99.90;;;;;;5025679;28;20045;-71
2023/07/27 12:05:44;;;;;;;1.70;1.27;;;19.90;99.90;;;;;;5028884;28;20033;-72
2023/07/27 12:08:10;;;;;;;2.22;1.30;;;19.90;99.90;;;;;;5021358;28;20064;-71
2023/07/27 12:10:36;;;;;;;3.45;1.70;;;19.90;99.90;;;;;;5022283;28;20560;-72
2023/07/27 12:13:03;;;;;;;2.03;1.55;;;19.90;99.90;;;;;;5020967;28;20476;-71
2023/07/27 12:15:31;;;;;;;2.88;1.83;;;20.00;99.90;;;;;;5024512;28;20033;-71
2023/07/27 12:18:05;;;;;;;2.45;2.03;;;20.00;99.90;;;;;;5011216;28;20030;-71
2023/07/27 12:20:33;;;;;;;2.67;1.80;;;20.10;99.90;;;;;;5017107;28;20021;-71
2023/07/27 12:22:58;;;;;;;1.80;1.45;;;20.00;99.90;;;;;;5014684;28;20025;-71
2023/07/27 12:25:28;;;;;;;2.20;1.90;;;20.20;99.90;;;;;;5018289;28;20036;-71
2023/07/27 12:27:53;;;;;;;2.03;1.63;;;20.30;99.90;;;;;;5018594;28;20041;-72
2023/07/27 12:30:20;;;;;;;2.38;1.73;;;20.40;99.90;;;;;;5027224;28;20059;-71
2023/07/27 12:32:47;;;;;;;1.98;1.60;;;20.40;99.90;;;;;;5025385;28;20152;-72
2023/07/27 12:35:12;;;;;;;1.80;1.55;;;20.40;99.90;;;;;;5028027;28;20034;-71
2023/07/27 12:37:38;;;;;;;1.75;1.35;;;20.50;99.90;;;;;;5028548;28;20338;-71
2023/07/27 12:40:04;;;;;;;1.65;1.40;;;20.50;99.90;;;;;;5030376;28;20217;-71
2023/07/27 12:42:30;;;;;;;1.70;1.40;;;20.50;99.90;;;;;;5032286;28;20033;-71
2023/07/27 12:44:56;;;;;;;1.35;1.10;;;20.60;99.90;;;;;;5026437;28;20022;-71
2023/07/27 12:47:22;;;;;;;2.22;1.33;;;20.60;99.90;;;;;;5028954;28;20168;-71
2023/07/27 12:49:49;;;;;;;1.77;1.00;;;20.60;99.90;;;;;;5028907;28;20455;-71
2023/07/27 12:52:15;;;;;;;1.30;0.90;;;20.60;99.90;;;;;;5032022;28;20057;-71
2023/07/27 12:54:40;;;;;;;5.13;1.00;;;20.70;99.90;;;;;;5028951;28;20060;-72
2023/07/27 12:57:07;;;;;;;1.40;1.00;;;20.70;99.90;;;;;;5027876;28;20037;-72
2023/07/27 12:59:32;;;;;;;1.30;0.90;;;20.80;99.90;;;;;;5032341;28;20473;-72
2023/07/27 13:01:58;;;;;;;1.70;1.30;;;20.90;99.90;;;;;;5028066;28;20057;-72
2023/07/27 13:04:23;;;;;;;1.55;1.35;;;21.00;99.90;;;;;;5031640;28;20017;-72